Ingleside, Canada
Current Conditions -  °F | °C
As of 1:53 PM on Sunday 23 Nov 2014 (Local Time) from KMSS Reporting Station
Overcast Overcast  
Wind Chill: 50°   Ceiling: 4600
Heat Index: 50°   Visibility: 9mi
Dew Point: 45°   Wind: 12mph
Humidity: 83%   Direction: 220°SW
Pressure: 30.03"   Gusts: NA
Location:  45°N, 75°W
Report Text: KMSS 231853Z AUTO 22010KT 9SM SCT019 OVC046 10/07 A3003 RMK AO2 SLP171 T01000072 $
Loading
Personal Weather Stations






























Interactive Weather Map New forecast layout! Learn more

10-Day Weather Forecast

Advertisements
Track Severe Weather on mobile